sensor_id;sensor_type;location;lat;lon;timestamp;temperature;humidity
921;DHT22;447;51.332;6.778;2023-03-01T00:00:23;4.80;96.80
921;DHT22;447;51.332;6.778;2023-03-01T00:02:52;4.80;96.80
921;DHT22;447;51.332;6.778;2023-03-01T00:05:20;4.80;96.80
921;DHT22;447;51.332;6.778;2023-03-01T00:07:45;5.10;97.00
921;DHT22;447;51.332;6.778;2023-03-01T00:10:13;4.80;96.80
921;DHT22;447;51.332;6.778;2023-03-01T00:12:42;4.80;96.80
921;DHT22;447;51.332;6.778;2023-03-01T00:15:10;4.80;96.80
921;DHT22;447;51.332;6.778;2023-03-01T00:17:39;4.70;96.80
921;DHT22;447;51.332;6.778;2023-03-01T00:20:05;4.80;96.80
921;DHT22;447;51.332;6.778;2023-03-01T00:22:36;4.80;96.80
921;DHT22;447;51.332;6.778;2023-03-01T00:25:05;4.70;96.70
921;DHT22;447;51.332;6.778;2023-03-01T00:27:31;4.70;96.70
921;DHT22;447;51.332;6.778;2023-03-01T00:29:57;4.70;96.70
921;DHT22;447;51.332;6.778;2023-03-01T00:32:23;4.70;96.70
921;DHT22;447;51.332;6.778;2023-03-01T00:34:51;4.70;96.70
921;DHT22;447;51.332;6.778;2023-03-01T00:37:23;4.70;96.70
921;DHT22;447;51.332;6.778;2023-03-01T00:39:52;4.70;96.80
921;DHT22;447;51.332;6.778;2023-03-01T00:42:20;4.70;96.80
921;DHT22;447;51.332;6.778;2023-03-01T00:44:50;4.70;96.70
921;DHT22;447;51.332;6.778;2023-03-01T00:47:16;4.70;96.70
921;DHT22;447;51.332;6.778;2023-03-01T00:49:42;4.70;96.70
921;DHT22;447;51.332;6.778;2023-03-01T00:52:10;4.70;96.80
921;DHT22;447;51.332;6.778;2023-03-01T00:54:38;4.70;96.80
921;DHT22;447;51.332;6.778;2023-03-01T00:57:06;4.60;96.70
921;DHT22;447;51.332;6.778;2023-03-01T00:59:35;4.60;96.80
921;DHT22;447;51.332;6.778;2023-03-01T01:02:01;4.60;96.80
921;DHT22;447;51.332;6.778;2023-03-01T01:04:29;4.70;96.80
921;DHT22;447;51.332;6.778;2023-03-01T01:06:55;4.60;96.80
921;DHT22;447;51.332;6.778;2023-03-01T01:09:21;4.70;97.20
921;DHT22;447;51.332;6.778;2023-03-01T01:11:51;4.60;96.80
921;DHT22;447;51.332;6.778;2023-03-01T01:14:18;4.60;96.80
921;DHT22;447;51.332;6.778;2023-03-01T01:16:44;4.60;96.80
921;DHT22;447;51.332;6.778;2023-03-01T01:19:11;4.60;96.80
921;DHT22;447;51.332;6.778;2023-03-01T01:21:40;4.60;96.80
921;DHT22;447;51.332;6.778;2023-03-01T01:24:08;4.60;96.80
921;DHT22;447;51.332;6.778;2023-03-01T01:26:39;4.60;96.80
921;DHT22;447;51.332;6.778;2023-03-01T01:29:05;4.60;96.80
921;DHT22;447;51.332;6.778;2023-03-01T01:31:35;4.60;96.80
921;DHT22;447;51.332;6.778;2023-03-01T01:34:04;4.50;96.70
921;DHT22;447;51.332;6.778;2023-03-01T01:36:33;4.50;96.70
921;DHT22;447;51.332;6.778;2023-03-01T01:38:59;4.50;96.80
921;DHT22;447;51.332;6.778;2023-03-01T01:41:27;4.50;96.80
921;DHT22;447;51.332;6.778;2023-03-01T01:46:41;4.50;96.80
921;DHT22;447;51.332;6.778;2023-03-01T01:49:37;4.50;96.70
921;DHT22;447;51.332;6.778;2023-03-01T01:57:40;4.50;96.80
921;DHT22;447;51.332;6.778;2023-03-01T02:00:14;4.50;96.80
921;DHT22;447;51.332;6.778;2023-03-01T02:02:41;4.40;96.80
921;DHT22;447;51.332;6.778;2023-03-01T02:05:24;4.40;96.80
921;DHT22;447;51.332;6.778;2023-03-01T02:07:52;4.40;96.80
921;DHT22;447;51.332;6.778;2023-03-01T02:10:20;4.40;96.80
921;DHT22;447;51.332;6.778;2023-03-01T02:12:47;4.40;96.80
921;DHT22;447;51.332;6.778;2023-03-01T02:15:13;4.40;96.80
921;DHT22;447;51.332;6.778;2023-03-01T02:17:41;4.40;96.70
921;DHT22;447;51.332;6.778;2023-03-01T02:22:43;4.40;96.80
921;DHT22;447;51.332;6.778;2023-03-01T02:28:06;4.40;96.80
921;DHT22;447;51.332;6.778;2023-03-01T02:30:34;4.40;96.80
921;DHT22;447;51.332;6.778;2023-03-01T02:33:04;4.40;96.80
921;DHT22;447;51.332;6.778;2023-03-01T02:35:33;4.30;96.80
921;DHT22;447;51.332;6.778;2023-03-01T02:38:01;4.30;96.80
921;DHT22;447;51.332;6.778;2023-03-01T02:40:30;4.30;96.80
921;DHT22;447;51.332;6.778;2023-03-01T02:42:58;4.30;96.80
921;DHT22;447;51.332;6.778;2023-03-01T02:45:27;4.30;96.80
921;DHT22;447;51.332;6.778;2023-03-01T02:47:58;4.30;96.80
921;DHT22;447;51.332;6.778;2023-03-01T02:53:11;4.30;96.80
921;DHT22;447;51.332;6.778;2023-03-01T02:55:43;4.30;96.80
921;DHT22;447;51.332;6.778;2023-03-01T02:58:14;4.30;96.80
921;DHT22;447;51.332;6.778;2023-03-01T03:00:45;4.30;96.80
921;DHT22;447;51.332;6.778;2023-03-01T03:03:16;4.30;96.80
921;DHT22;447;51.332;6.778;2023-03-01T03:05:42;4.30;96.80
921;DHT22;447;51.332;6.778;2023-03-01T03:08:08;4.30;96.80
921;DHT22;447;51.332;6.778;2023-03-01T03:10:39;4.30;96.80
921;DHT22;447;51.332;6.778;2023-03-01T03:13:08;4.30;96.80
921;DHT22;447;51.332;6.778;2023-03-01T03:15:35;4.20;96.70
921;DHT22;447;51.332;6.778;2023-03-01T03:18:06;4.30;96.70
921;DHT22;447;51.332;6.778;2023-03-01T03:20:35;4.20;96.70
921;DHT22;447;51.332;6.778;2023-03-01T03:23:07;4.20;96.70
921;DHT22;447;51.332;6.778;2023-03-01T03:25:33;4.20;96.70
921;DHT22;447;51.332;6.778;2023-03-01T03:28:06;4.20;96.70
921;DHT22;447;51.332;6.778;2023-03-01T03:30:37;4.20;96.80
921;DHT22;447;51.332;6.778;2023-03-01T03:33:09;4.20;96.70
921;DHT22;447;51.332;6.778;2023-03-01T03:35:41;4.20;97.10
921;DHT22;447;51.332;6.778;2023-03-01T03:38:15;4.20;96.70
921;DHT22;447;51.332;6.778;2023-03-01T03:40:48;4.20;96.80
921;DHT22;447;51.332;6.778;2023-03-01T03:43:16;4.20;96.80
921;DHT22;447;51.332;6.778;2023-03-01T03:45:47;4.20;96.80
921;DHT22;447;51.332;6.778;2023-03-01T03:48:14;4.20;96.80
921;DHT22;447;51.332;6.778;2023-03-01T03:50:40;4.20;96.80
921;DHT22;447;51.332;6.778;2023-03-01T03:53:09;4.20;96.80
921;DHT22;447;51.332;6.778;2023-03-01T03:55:35;4.20;96.80
921;DHT22;447;51.332;6.778;2023-03-01T03:58:06;4.10;96.70
921;DHT22;447;51.332;6.778;2023-03-01T04:00:37;4.20;96.80
921;DHT22;447;51.332;6.778;2023-03-01T04:03:07;4.10;96.80
921;DHT22;447;51.332;6.778;2023-03-01T04:05:36;4.10;96.80
921;DHT22;447;51.332;6.778;2023-03-01T04:08:02;4.10;96.80
921;DHT22;447;51.332;6.778;2023-03-01T04:10:31;4.10;96.80
921;DHT22;447;51.332;6.778;2023-03-01T04:13:03;4.10;96.80
921;DHT22;447;51.332;6.778;2023-03-01T04:15:30;4.10;96.80
921;DHT22;447;51.332;6.778;2023-03-01T04:17:56;4.10;96.80
921;DHT22;447;51.332;6.778;2023-03-01T04:20:24;4.10;96.80
921;DHT22;447;51.332;6.778;2023-03-01T04:23:08;4.10;96.80
921;DHT22;447;51.332;6.778;2023-03-01T04:25:55;4.10;96.80
921;DHT22;447;51.332;6.778;2023-03-01T04:28:36;4.10;96.80
921;DHT22;447;51.332;6.778;2023-03-01T04:31:14;4.10;96.70
921;DHT22;447;51.332;6.778;2023-03-01T04:33:43;4.10;96.70
921;DHT22;447;51.332;6.778;2023-03-01T04:36:13;4.00;96.70
921;DHT22;447;51.332;6.778;2023-03-01T04:38:43;4.00;96.70
921;DHT22;447;51.332;6.778;2023-03-01T04:41:14;4.00;96.70
921;DHT22;447;51.332;6.778;2023-03-01T04:43:42;4.00;96.80
921;DHT22;447;51.332;6.778;2023-03-01T04:46:16;4.00;96.70
921;DHT22;447;51.332;6.778;2023-03-01T04:48:46;4.00;96.80
921;DHT22;447;51.332;6.778;2023-03-01T04:51:13;4.00;96.80
921;DHT22;447;51.332;6.778;2023-03-01T04:53:42;4.00;96.80
921;DHT22;447;51.332;6.778;2023-03-01T04:56:12;4.00;96.80
921;DHT22;447;51.332;6.778;2023-03-01T04:58:41;4.00;96.80
921;DHT22;447;51.332;6.778;2023-03-01T05:01:17;4.00;96.80
921;DHT22;447;51.332;6.778;2023-03-01T05:03:50;4.00;96.80
921;DHT22;447;51.332;6.778;2023-03-01T05:06:18;4.00;96.80
921;DHT22;447;51.332;6.778;2023-03-01T05:08:49;3.90;96.70
921;DHT22;447;51.332;6.778;2023-03-01T05:11:20;3.90;96.70
921;DHT22;447;51.332;6.778;2023-03-01T05:13:48;3.90;96.70
921;DHT22;447;51.332;6.778;2023-03-01T05:16:18;3.90;96.70
921;DHT22;447;51.332;6.778;2023-03-01T05:18:45;3.90;96.70
921;DHT22;447;51.332;6.778;2023-03-01T05:21:14;3.90;96.70
921;DHT22;447;51.332;6.778;2023-03-01T05:23:43;3.90;97.10
921;DHT22;447;51.332;6.778;2023-03-01T05:26:09;3.90;96.70
921;DHT22;447;51.332;6.778;2023-03-01T05:28:40;3.90;96.70
921;DHT22;447;51.332;6.778;2023-03-01T05:31:09;3.90;96.70
921;DHT22;447;51.332;6.778;2023-03-01T05:33:39;3.90;96.70
921;DHT22;447;51.332;6.778;2023-03-01T05:36:11;3.90;96.70
921;DHT22;447;51.332;6.778;2023-03-01T05:38:39;3.90;96.70
921;DHT22;447;51.332;6.778;2023-03-01T05:41:05;3.90;96.70
921;DHT22;447;51.332;6.778;2023-03-01T05:43:41;3.90;96.70
921;DHT22;447;51.332;6.778;2023-03-01T05:46:09;3.80;96.70
921;DHT22;447;51.332;6.778;2023-03-01T05:48:38;3.80;96.70
921;DHT22;447;51.332;6.778;2023-03-01T05:51:04;3.80;96.70
921;DHT22;447;51.332;6.778;2023-03-01T05:53:32;3.80;96.70
921;DHT22;447;51.332;6.778;2023-03-01T05:56:03;3.80;96.70
921;DHT22;447;51.332;6.778;2023-03-01T05:58:29;3.80;96.60
921;DHT22;447;51.332;6.778;2023-03-01T06:00:57;3.80;96.70
921;DHT22;447;51.332;6.778;2023-03-01T06:03:23;3.80;96.60
921;DHT22;447;51.332;6.778;2023-03-01T06:05:49;3.80;96.60
921;DHT22;447;51.332;6.778;2023-03-01T06:08:17;3.80;96.60
921;DHT22;447;51.332;6.778;2023-03-01T06:10:47;3.80;96.60
921;DHT22;447;51.332;6.778;2023-03-01T06:13:13;3.80;96.70
921;DHT22;447;51.332;6.778;2023-03-01T06:15:39;3.80;96.70
921;DHT22;447;51.332;6.778;2023-03-01T06:18:05;3.80;96.70
921;DHT22;447;51.332;6.778;2023-03-01T06:20:31;3.70;96.70
921;DHT22;447;51.332;6.778;2023-03-01T06:22:59;3.70;96.70
921;DHT22;447;51.332;6.778;2023-03-01T06:25:26;3.70;96.70
921;DHT22;447;51.332;6.778;2023-03-01T06:27:53;3.70;96.70
921;DHT22;447;51.332;6.778;2023-03-01T06:30:20;3.70;96.70
921;DHT22;447;51.332;6.778;2023-03-01T06:32:47;3.70;96.70
921;DHT22;447;51.332;6.778;2023-03-01T06:35:17;3.70;96.70
921;DHT22;447;51.332;6.778;2023-03-01T06:37:47;3.70;96.70
921;DHT22;447;51.332;6.778;2023-03-01T06:40:15;3.70;96.70
921;DHT22;447;51.332;6.778;2023-03-01T06:42:43;3.60;96.60
921;DHT22;447;51.332;6.778;2023-03-01T06:45:16;3.60;96.70
921;DHT22;447;51.332;6.778;2023-03-01T06:47:44;3.60;96.70
921;DHT22;447;51.332;6.778;2023-03-01T06:50:11;3.60;96.70
921;DHT22;447;51.332;6.778;2023-03-01T06:52:38;3.70;96.70
921;DHT22;447;51.332;6.778;2023-03-01T06:55:06;3.60;96.60
921;DHT22;447;51.332;6.778;2023-03-01T06:57:35;3.60;96.70
921;DHT22;447;51.332;6.778;2023-03-01T07:00:06;3.60;96.70
921;DHT22;447;51.332;6.778;2023-03-01T07:02:33;3.60;96.70
921;DHT22;447;51.332;6.778;2023-03-01T07:05:02;3.60;96.70
921;DHT22;447;51.332;6.778;2023-03-01T07:07:28;3.60;96.70
921;DHT22;447;51.332;6.778;2023-03-01T07:09:54;3.60;96.70
921;DHT22;447;51.332;6.778;2023-03-01T07:12:20;3.60;96.70
921;DHT22;447;51.332;6.778;2023-03-01T07:14:50;3.60;96.70
921;DHT22;447;51.332;6.778;2023-03-01T07:17:16;3.60;96.70
921;DHT22;447;51.332;6.778;2023-03-01T07:19:45;3.60;96.70
921;DHT22;447;51.332;6.778;2023-03-01T07:22:11;3.60;96.70
921;DHT22;447;51.332;6.778;2023-03-01T07:24:37;3.60;96.70
921;DHT22;447;51.332;6.778;2023-03-01T07:27:07;3.60;96.70
921;DHT22;447;51.332;6.778;2023-03-01T07:29:43;3.60;96.70
921;DHT22;447;51.332;6.778;2023-03-01T07:32:09;3.60;96.70
921;DHT22;447;51.332;6.778;2023-03-01T07:34:38;3.60;96.70
921;DHT22;447;51.332;6.778;2023-03-01T07:37:04;3.50;96.70
921;DHT22;447;51.332;6.778;2023-03-01T07:39:32;3.50;96.70
921;DHT22;447;51.332;6.778;2023-03-01T07:42:00;3.60;96.70
921;DHT22;447;51.332;6.778;2023-03-01T07:44:29;3.60;96.70
921;DHT22;447;51.332;6.778;2023-03-01T07:46:57;3.50;96.70
921;DHT22;447;51.332;6.778;2023-03-01T07:49:26;3.50;96.70
921;DHT22;447;51.332;6.778;2023-03-01T07:51:57;3.50;96.70
921;DHT22;447;51.332;6.778;2023-03-01T07:54:25;3.50;96.70
921;DHT22;447;51.332;6.778;2023-03-01T07:56:52;3.50;96.70
921;DHT22;447;51.332;6.778;2023-03-01T07:59:23;3.50;96.70
921;DHT22;447;51.332;6.778;2023-03-01T08:01:57;3.50;96.80
921;DHT22;447;51.332;6.778;2023-03-01T08:04:23;3.50;96.70
921;DHT22;447;51.332;6.778;2023-03-01T08:06:51;3.50;96.70
921;DHT22;447;51.332;6.778;2023-03-01T08:09:17;3.50;96.70
921;DHT22;447;51.332;6.778;2023-03-01T08:11:43;3.50;96.80
921;DHT22;447;51.332;6.778;2023-03-01T08:14:11;3.50;96.80
921;DHT22;447;51.332;6.778;2023-03-01T08:16:37;3.50;96.80
921;DHT22;447;51.332;6.778;2023-03-01T08:19:07;3.50;96.80
921;DHT22;447;51.332;6.778;2023-03-01T08:21:36;3.50;96.80
921;DHT22;447;51.332;6.778;2023-03-01T08:24:04;3.50;96.90
921;DHT22;447;51.332;6.778;2023-03-01T08:26:30;3.50;96.90
921;DHT22;447;51.332;6.778;2023-03-01T08:28:56;3.50;96.90
921;DHT22;447;51.332;6.778;2023-03-01T08:31:33;3.50;96.80
921;DHT22;447;51.332;6.778;2023-03-01T08:34:03;3.50;96.90
921;DHT22;447;51.332;6.778;2023-03-01T08:36:32;3.50;96.90
921;DHT22;447;51.332;6.778;2023-03-01T08:38:58;3.50;96.90
921;DHT22;447;51.332;6.778;2023-03-01T08:41:24;3.50;96.90
921;DHT22;447;51.332;6.778;2023-03-01T08:43:51;3.50;96.90
921;DHT22;447;51.332;6.778;2023-03-01T08:46:18;3.50;96.90
921;DHT22;447;51.332;6.778;2023-03-01T08:48:44;3.50;96.90
921;DHT22;447;51.332;6.778;2023-03-01T08:51:17;3.50;96.90
921;DHT22;447;51.332;6.778;2023-03-01T08:53:43;3.50;96.90
921;DHT22;447;51.332;6.778;2023-03-01T08:56:12;3.50;96.90
921;DHT22;447;51.332;6.778;2023-03-01T08:58:38;3.50;96.90
921;DHT22;447;51.332;6.778;2023-03-01T09:01:10;3.50;96.80
921;DHT22;447;51.332;6.778;2023-03-01T09:03:36;3.50;96.80
921;DHT22;447;51.332;6.778;2023-03-01T09:06:04;3.50;96.80
921;DHT22;447;51.332;6.778;2023-03-01T09:08:31;3.50;96.80
921;DHT22;447;51.332;6.778;2023-03-01T09:11:03;3.50;96.80
921;DHT22;447;51.332;6.778;2023-03-01T09:13:30;3.50;96.80
921;DHT22;447;51.332;6.778;2023-03-01T09:16:00;3.50;96.80
921;DHT22;447;51.332;6.778;2023-03-01T09:18:26;3.60;96.90
921;DHT22;447;51.332;6.778;2023-03-01T09:20:54;3.60;96.90
921;DHT22;447;51.332;6.778;2023-03-01T09:23:28;3.60;96.80
921;DHT22;447;51.332;6.778;2023-03-01T09:25:57;3.60;96.80
921;DHT22;447;51.332;6.778;2023-03-01T09:28:23;3.60;96.80
921;DHT22;447;51.332;6.778;2023-03-01T09:30:51;3.60;96.80
921;DHT22;447;51.332;6.778;2023-03-01T09:33:19;3.60;96.80
921;DHT22;447;51.332;6.778;2023-03-01T09:35:48;3.60;96.80
921;DHT22;447;51.332;6.778;2023-03-01T09:38:14;3.70;96.80
921;DHT22;447;51.332;6.778;2023-03-01T09:40:43;3.70;96.80
921;DHT22;447;51.332;6.778;2023-03-01T09:43:32;3.70;96.80
921;DHT22;447;51.332;6.778;2023-03-01T09:46:10;3.70;96.70
921;DHT22;447;51.332;6.778;2023-03-01T09:49:03;3.70;96.70
921;DHT22;447;51.332;6.778;2023-03-01T09:51:34;3.70;96.70
921;DHT22;447;51.332;6.778;2023-03-01T09:54:04;3.80;96.80
921;DHT22;447;51.332;6.778;2023-03-01T09:56:51;3.80;96.70
921;DHT22;447;51.332;6.778;2023-03-01T10:02:42;3.80;96.60
921;DHT22;447;51.332;6.778;2023-03-01T10:08:23;3.90;96.60
921;DHT22;447;51.332;6.778;2023-03-01T10:10:53;3.90;96.60
921;DHT22;447;51.332;6.778;2023-03-01T10:13:52;3.90;96.60
921;DHT22;447;51.332;6.778;2023-03-01T10:16:41;3.90;96.60
921;DHT22;447;51.332;6.778;2023-03-01T10:19:15;4.00;96.50
921;DHT22;447;51.332;6.778;2023-03-01T10:21:45;4.00;96.50
921;DHT22;447;51.332;6.778;2023-03-01T10:24:18;4.00;96.50
921;DHT22;447;51.332;6.778;2023-03-01T10:26:57;4.00;96.50
921;DHT22;447;51.332;6.778;2023-03-01T10:29:34;4.10;96.50
921;DHT22;447;51.332;6.778;2023-03-01T10:32:06;4.10;96.40
921;DHT22;447;51.332;6.778;2023-03-01T10:34:37;4.10;96.40
921;DHT22;447;51.332;6.778;2023-03-01T10:39:36;4.20;96.50
921;DHT22;447;51.332;6.778;2023-03-01T10:42:03;4.20;96.50
921;DHT22;447;51.332;6.778;2023-03-01T10:44:47;4.20;96.50
921;DHT22;447;51.332;6.778;2023-03-01T10:47:25;4.20;96.40
921;DHT22;447;51.332;6.778;2023-03-01T10:52:30;4.30;96.30
921;DHT22;447;51.332;6.778;2023-03-01T10:55:42;4.30;96.30
921;DHT22;447;51.332;6.778;2023-03-01T10:57:52;4.30;96.20
921;DHT22;447;51.332;6.778;2023-03-01T11:00:56;4.30;96.20
921;DHT22;447;51.332;6.778;2023-03-01T11:03:25;4.40;96.20
921;DHT22;447;51.332;6.778;2023-03-01T11:08:51;4.40;96.10
921;DHT22;447;51.332;6.778;2023-03-01T11:13:55;4.50;96.00
921;DHT22;447;51.332;6.778;2023-03-01T11:16:27;4.50;96.00
921;DHT22;447;51.332;6.778;2023-03-01T11:18:58;4.50;96.00
921;DHT22;447;51.332;6.778;2023-03-01T11:21:29;4.50;96.00
921;DHT22;447;51.332;6.778;2023-03-01T11:23:59;4.50;96.10
921;DHT22;447;51.332;6.778;2023-03-01T11:26:27;4.60;96.20
921;DHT22;447;51.332;6.778;2023-03-01T11:28:58;4.60;96.20
921;DHT22;447;51.332;6.778;2023-03-01T11:31:29;4.60;96.10
921;DHT22;447;51.332;6.778;2023-03-01T11:34:05;4.60;96.10
921;DHT22;447;51.332;6.778;2023-03-01T11:36:49;4.70;96.10
921;DHT22;447;51.332;6.778;2023-03-01T11:39:48;4.70;96.10
921;DHT22;447;51.332;6.778;2023-03-01T11:45:26;4.70;96.00
921;DHT22;447;51.332;6.778;2023-03-01T11:50:47;4.80;96.00
921;DHT22;447;51.332;6.778;2023-03-01T11:56:26;4.80;95.90
921;DHT22;447;51.332;6.778;2023-03-01T12:01:32;4.90;95.90
921;DHT22;447;51.332;6.778;2023-03-01T12:15:28;5.00;95.30
921;DHT22;447;51.332;6.778;2023-03-01T12:32:21;5.10;95.40
921;DHT22;447;51.332;6.778;2023-03-01T12:49:15;5.20;95.10
921;DHT22;447;51.332;6.778;2023-03-01T12:51:40;5.20;95.10
921;DHT22;447;51.332;6.778;2023-03-01T12:54:16;5.30;95.10
921;DHT22;447;51.332;6.778;2023-03-01T12:56:54;5.30;95.10
921;DHT22;447;51.332;6.778;2023-03-01T13:02:23;5.30;94.90
921;DHT22;447;51.332;6.778;2023-03-01T13:07:43;5.30;94.80
921;DHT22;447;51.332;6.778;2023-03-01T13:15:37;5.40;94.80
921;DHT22;447;51.332;6.778;2023-03-01T13:20:49;5.40;94.80
921;DHT22;447;51.332;6.778;2023-03-01T13:26:05;5.50;94.80
921;DHT22;447;51.332;6.778;2023-03-01T13:28:55;5.50;94.70
921;DHT22;447;51.332;6.778;2023-03-01T13:39:00;5.50;94.50
921;DHT22;447;51.332;6.778;2023-03-01T13:46:46;5.60;94.60
921;DHT22;447;51.332;6.778;2023-03-01T13:49:22;5.60;94.50
921;DHT22;447;51.332;6.778;2023-03-01T13:51:49;5.60;94.40
921;DHT22;447;51.332;6.778;2023-03-01T13:54:39;5.60;94.30
921;DHT22;447;51.332;6.778;2023-03-01T13:57:21;5.60;94.30
921;DHT22;447;51.332;6.778;2023-03-01T13:59:50;5.60;94.20
921;DHT22;447;51.332;6.778;2023-03-01T14:02:16;5.70;94.30
921;DHT22;447;51.332;6.778;2023-03-01T14:04:43;5.70;94.20
921;DHT22;447;51.332;6.778;2023-03-01T14:07:20;5.70;94.10
921;DHT22;447;51.332;6.778;2023-03-01T14:09:55;5.70;94.00
921;DHT22;447;51.332;6.778;2023-03-01T14:20:08;5.70;94.00
921;DHT22;447;51.332;6.778;2023-03-01T14:22:36;5.70;93.90
921;DHT22;447;51.332;6.778;2023-03-01T14:25:17;5.80;93.90
921;DHT22;447;51.332;6.778;2023-03-01T14:27:44;5.80;94.00
921;DHT22;447;51.332;6.778;2023-03-01T14:33:02;5.80;93.90
921;DHT22;447;51.332;6.778;2023-03-01T14:35:31;5.80;93.90
921;DHT22;447;51.332;6.778;2023-03-01T14:37:58;5.80;93.80
921;DHT22;447;51.332;6.778;2023-03-01T14:40:25;5.80;93.80
921;DHT22;447;51.332;6.778;2023-03-01T14:42:52;5.80;93.80
921;DHT22;447;51.332;6.778;2023-03-01T14:45:26;5.80;93.80
921;DHT22;447;51.332;6.778;2023-03-01T14:47:54;5.80;93.90
921;DHT22;447;51.332;6.778;2023-03-01T14:50:31;5.90;93.90
921;DHT22;447;51.332;6.778;2023-03-01T14:53:02;5.90;93.90
921;DHT22;447;51.332;6.778;2023-03-01T14:55:45;5.90;93.90
921;DHT22;447;51.332;6.778;2023-03-01T14:58:14;5.90;93.90
921;DHT22;447;51.332;6.778;2023-03-01T15:00:47;5.90;93.90
921;DHT22;447;51.332;6.778;2023-03-01T15:03:34;5.90;93.90
921;DHT22;447;51.332;6.778;2023-03-01T15:06:03;5.90;93.90
921;DHT22;447;51.332;6.778;2023-03-01T15:08:31;6.00;93.90
921;DHT22;447;51.332;6.778;2023-03-01T15:13:53;6.00;93.90
921;DHT22;447;51.332;6.778;2023-03-01T15:16:30;6.00;93.90
921;DHT22;447;51.332;6.778;2023-03-01T15:19:04;6.00;93.80
921;DHT22;447;51.332;6.778;2023-03-01T15:21:38;6.00;93.80
921;DHT22;447;51.332;6.778;2023-03-01T15:24:30;6.00;93.80
921;DHT22;447;51.332;6.778;2023-03-01T15:27:03;6.00;93.80
921;DHT22;447;51.332;6.778;2023-03-01T15:29:33;6.00;93.80
921;DHT22;447;51.332;6.778;2023-03-01T15:32:32;6.00;93.70
921;DHT22;447;51.332;6.778;2023-03-01T15:34:59;6.00;93.70
921;DHT22;447;51.332;6.778;2023-03-01T15:37:39;6.00;93.70
921;DHT22;447;51.332;6.778;2023-03-01T15:40:26;6.10;93.70
921;DHT22;447;51.332;6.778;2023-03-01T15:43:07;6.10;93.70
921;DHT22;447;51.332;6.778;2023-03-01T15:45:58;6.10;93.60
921;DHT22;447;51.332;6.778;2023-03-01T15:48:24;6.10;93.60
921;DHT22;447;51.332;6.778;2023-03-01T15:50:55;6.10;93.60
921;DHT22;447;51.332;6.778;2023-03-01T15:53:21;6.10;93.60
921;DHT22;447;51.332;6.778;2023-03-01T15:55:50;6.10;93.60
921;DHT22;447;51.332;6.778;2023-03-01T16:00:47;6.10;93.50
921;DHT22;447;51.332;6.778;2023-03-01T16:03:15;6.10;93.60
921;DHT22;447;51.332;6.778;2023-03-01T16:05:50;6.10;93.60
921;DHT22;447;51.332;6.778;2023-03-01T16:08:17;6.10;93.50
921;DHT22;447;51.332;6.778;2023-03-01T16:10:47;6.10;93.60
921;DHT22;447;51.332;6.778;2023-03-01T16:13:15;6.10;93.90
921;DHT22;447;51.332;6.778;2023-03-01T16:15:41;6.10;93.60
921;DHT22;447;51.332;6.778;2023-03-01T16:18:10;6.10;93.60
921;DHT22;447;51.332;6.778;2023-03-01T16:20:37;6.10;93.60
921;DHT22;447;51.332;6.778;2023-03-01T16:23:07;6.10;93.70
921;DHT22;447;51.332;6.778;2023-03-01T16:25:36;6.10;93.70
921;DHT22;447;51.332;6.778;2023-03-01T16:28:06;6.10;93.70
921;DHT22;447;51.332;6.778;2023-03-01T16:30:34;6.10;93.80
921;DHT22;447;51.332;6.778;2023-03-01T16:33:01;6.10;93.80
921;DHT22;447;51.332;6.778;2023-03-01T16:35:29;6.10;93.80
921;DHT22;447;51.332;6.778;2023-03-01T16:37:59;6.10;93.80
921;DHT22;447;51.332;6.778;2023-03-01T16:40:28;6.10;93.90
921;DHT22;447;51.332;6.778;2023-03-01T16:42:56;6.10;93.90
921;DHT22;447;51.332;6.778;2023-03-01T16:45:34;6.10;94.00
921;DHT22;447;51.332;6.778;2023-03-01T16:48:02;6.10;94.00
921;DHT22;447;51.332;6.778;2023-03-01T16:50:28;6.10;94.00
921;DHT22;447;51.332;6.778;2023-03-01T16:52:59;6.10;94.10
921;DHT22;447;51.332;6.778;2023-03-01T16:55:25;6.10;94.20
921;DHT22;447;51.332;6.778;2023-03-01T16:57:56;6.10;94.20
921;DHT22;447;51.332;6.778;2023-03-01T17:00:25;6.10;93.30
921;DHT22;447;51.332;6.778;2023-03-01T17:02:54;6.20;92.80
921;DHT22;447;51.332;6.778;2023-03-01T17:05:20;6.20;92.70
921;DHT22;447;51.332;6.778;2023-03-01T17:07:49;6.20;92.70
921;DHT22;447;51.332;6.778;2023-03-01T17:10:17;6.20;92.70
921;DHT22;447;51.332;6.778;2023-03-01T17:12:43;6.20;92.80
921;DHT22;447;51.332;6.778;2023-03-01T17:15:10;6.20;92.80
921;DHT22;447;51.332;6.778;2023-03-01T17:17:37;6.20;92.80
921;DHT22;447;51.332;6.778;2023-03-01T17:20:03;6.20;92.90
921;DHT22;447;51.332;6.778;2023-03-01T17:22:31;6.10;92.80
921;DHT22;447;51.332;6.778;2023-03-01T17:25:03;6.10;92.90
921;DHT22;447;51.332;6.778;2023-03-01T17:27:29;6.10;92.90
921;DHT22;447;51.332;6.778;2023-03-01T17:30:00;6.10;93.00
921;DHT22;447;51.332;6.778;2023-03-01T17:32:26;6.10;92.90
921;DHT22;447;51.332;6.778;2023-03-01T17:34:54;6.10;93.00
921;DHT22;447;51.332;6.778;2023-03-01T17:37:20;6.10;93.00
921;DHT22;447;51.332;6.778;2023-03-01T17:39:46;6.10;93.00
921;DHT22;447;51.332;6.778;2023-03-01T17:42:14;6.10;93.10
921;DHT22;447;51.332;6.778;2023-03-01T17:44:43;6.10;93.10
921;DHT22;447;51.332;6.778;2023-03-01T17:47:09;6.00;93.00
921;DHT22;447;51.332;6.778;2023-03-01T17:49:37;6.00;92.90
921;DHT22;447;51.332;6.778;2023-03-01T17:52:03;6.00;93.00
921;DHT22;447;51.332;6.778;2023-03-01T17:54:32;6.00;93.00
921;DHT22;447;51.332;6.778;2023-03-01T17:57:03;6.00;93.10
921;DHT22;447;51.332;6.778;2023-03-01T17:59:28;6.00;93.20
921;DHT22;447;51.332;6.778;2023-03-01T18:01:57;6.00;93.40
921;DHT22;447;51.332;6.778;2023-03-01T18:04:27;6.00;93.60
921;DHT22;447;51.332;6.778;2023-03-01T18:06:56;5.90;93.70
921;DHT22;447;51.332;6.778;2023-03-01T18:09:23;5.90;93.70
921;DHT22;447;51.332;6.778;2023-03-01T18:11:53;5.90;93.90
921;DHT22;447;51.332;6.778;2023-03-01T18:14:19;5.90;94.10
921;DHT22;447;51.332;6.778;2023-03-01T18:16:45;5.90;94.10
921;DHT22;447;51.332;6.778;2023-03-01T18:19:11;5.90;94.20
921;DHT22;447;51.332;6.778;2023-03-01T18:21:42;5.80;94.30
921;DHT22;447;51.332;6.778;2023-03-01T18:24:08;5.80;94.30
921;DHT22;447;51.332;6.778;2023-03-01T18:26:37;5.80;94.40
921;DHT22;447;51.332;6.778;2023-03-01T18:29:05;5.80;94.40
921;DHT22;447;51.332;6.778;2023-03-01T18:31:35;5.90;94.50
921;DHT22;447;51.332;6.778;2023-03-01T18:34:03;5.90;94.50
921;DHT22;447;51.332;6.778;2023-03-01T18:36:34;5.80;94.50
921;DHT22;447;51.332;6.778;2023-03-01T18:39:05;5.90;94.50
921;DHT22;447;51.332;6.778;2023-03-01T18:41:32;5.90;94.60
921;DHT22;447;51.332;6.778;2023-03-01T18:43:58;5.80;94.50
921;DHT22;447;51.332;6.778;2023-03-01T18:46:27;5.80;94.60
921;DHT22;447;51.332;6.778;2023-03-01T18:48:53;5.80;94.70
921;DHT22;447;51.332;6.778;2023-03-01T18:51:27;5.80;94.70
921;DHT22;447;51.332;6.778;2023-03-01T18:54:00;5.80;94.60
921;DHT22;447;51.332;6.778;2023-03-01T18:56:31;5.80;94.70
921;DHT22;447;51.332;6.778;2023-03-01T18:58:57;5.80;94.70
921;DHT22;447;51.332;6.778;2023-03-01T19:01:29;5.80;94.70
921;DHT22;447;51.332;6.778;2023-03-01T19:03:58;5.80;94.70
921;DHT22;447;51.332;6.778;2023-03-01T19:06:28;5.80;94.70
921;DHT22;447;51.332;6.778;2023-03-01T19:08:54;5.80;94.60
921;DHT22;447;51.332;6.778;2023-03-01T19:11:20;5.80;94.70
921;DHT22;447;51.332;6.778;2023-03-01T19:13:52;5.80;94.60
921;DHT22;447;51.332;6.778;2023-03-01T19:16:22;5.80;94.70
921;DHT22;447;51.332;6.778;2023-03-01T19:18:49;5.80;94.70
921;DHT22;447;51.332;6.778;2023-03-01T19:21:21;5.80;94.70